Johnsonville, South Dakota
Current Conditions -  °F | °C
As of 2:54 AM on Saturday 25 Oct 2014 (Local Time) from KCNB Reporting Station
Clear Clear  
Wind Chill: 58°   Ceiling: Unl
Heat Index: 58°   Visibility: 10mi
Dew Point: 36°   Wind: 9mph
Humidity: 45%   Direction: 300°WNW
Pressure: 30.05"   Gusts: NA
Location:  44.5872°N, 96.7638°W
Report Text: KCNB 250754Z AUTO 30008KT 10SM CLR 14/02 A3005 RMK AO2 T01420024
Loading
Personal Weather Stations






























Interactive Weather Map
Tropical Storm Tracking
New forecast layout! Learn more

10-Day Weather Forecast

Advertisements
Track Severe Weather on mobile